sensor_id;sensor_type;location;lat;lon;timestamp;pressure;altitude;pressure_sealevel;temperature;humidity
37860;BME280;23698;52.014;5.190;2023-05-02T05:03:10;102187.13;;;9.86;100.00
37860;BME280;23698;52.014;5.190;2023-05-02T05:05:56;102185.88;;;9.98;100.00
37860;BME280;23698;52.014;5.190;2023-05-02T05:08:43;102188.34;;;9.73;100.00
37860;BME280;23698;52.014;5.190;2023-05-02T05:11:31;102191.81;;;9.83;100.00
37860;BME280;23698;52.014;5.190;2023-05-02T05:14:18;102199.63;;;9.87;100.00
37860;BME280;23698;52.014;5.190;2023-05-02T10:02:35;102608.59;;;13.63;100.00
37860;BME280;23698;52.014;5.190;2023-05-02T10:05:22;102610.84;;;13.67;100.00
37860;BME280;23698;52.014;5.190;2023-05-02T10:08:10;102615.41;;;13.50;100.00
37860;BME280;23698;52.014;5.190;2023-05-02T10:10:57;102616.13;;;13.85;100.00
37860;BME280;23698;52.014;5.190;2023-05-02T10:13:44;102625.69;;;13.89;100.00
37860;BME280;23698;52.014;5.190;2023-05-02T14:06:08;102729.56;;;16.65;65.44
37860;BME280;23698;52.014;5.190;2023-05-02T14:08:55;102733.03;;;15.97;65.38
37860;BME280;23698;52.014;5.190;2023-05-02T14:11:41;102733.06;;;16.35;67.26
37860;BME280;23698;52.014;5.190;2023-05-02T14:14:31;102731.38;;;16.72;68.30
37860;BME280;23698;52.014;5.190;2023-05-02T14:17:17;102731.78;;;16.84;67.35
37860;BME280;23698;52.014;5.190;2023-05-02T14:20:06;102724.88;;;17.33;68.08
37860;BME280;23698;52.014;5.190;2023-05-02T14:22:56;102727.03;;;17.38;66.20
37860;BME280;23698;52.014;5.190;2023-05-02T14:25:42;102725.06;;;16.34;67.13
37860;BME280;23698;52.014;5.190;2023-05-02T14:28:28;102726.25;;;16.69;69.86
37860;BME280;23698;52.014;5.190;2023-05-02T14:31:15;102731.88;;;16.91;64.61
37860;BME280;23698;52.014;5.190;2023-05-02T14:34:01;102731.03;;;17.86;65.45
37860;BME280;23698;52.014;5.190;2023-05-02T14:36:49;102732.94;;;17.56;63.92
37860;BME280;23698;52.014;5.190;2023-05-02T14:39:37;102738.16;;;18.02;62.72
37860;BME280;23698;52.014;5.190;2023-05-02T14:42:24;102727.16;;;18.45;63.22
37860;BME280;23698;52.014;5.190;2023-05-02T14:45:11;102727.44;;;19.14;61.41
37860;BME280;23698;52.014;5.190;2023-05-02T14:48:01;102728.50;;;18.84;57.63
37860;BME280;23698;52.014;5.190;2023-05-02T14:50:48;102731.22;;;19.61;59.43
37860;BME280;23698;52.014;5.190;2023-05-02T14:53:34;102718.41;;;19.95;56.95
37860;BME280;23698;52.014;5.190;2023-05-02T14:56:23;102728.13;;;19.29;54.44
37860;BME280;23698;52.014;5.190;2023-05-02T14:59:10;102715.66;;;18.63;56.07
37860;BME280;23698;52.014;5.190;2023-05-02T15:18:15;102716.91;;;19.31;57.00
37860;BME280;23698;52.014;5.190;2023-05-02T15:21:01;102708.69;;;19.92;58.50
37860;BME280;23698;52.014;5.190;2023-05-02T15:23:48;102722.19;;;19.26;56.34
37860;BME280;23698;52.014;5.190;2023-05-02T15:26:34;102724.78;;;19.89;59.10
37860;BME280;23698;52.014;5.190;2023-05-02T15:29:27;102728.53;;;19.81;55.60
37860;BME280;23698;52.014;5.190;2023-05-02T15:32:13;102719.09;;;20.24;54.86
37860;BME280;23698;52.014;5.190;2023-05-02T15:35:06;102723.31;;;20.19;54.52
37860;BME280;23698;52.014;5.190;2023-05-02T15:37:53;102729.00;;;19.91;55.01
37860;BME280;23698;52.014;5.190;2023-05-02T15:40:40;102725.44;;;20.51;53.76
37860;BME280;23698;52.014;5.190;2023-05-02T15:43:26;102732.66;;;20.38;52.38
37860;BME280;23698;52.014;5.190;2023-05-02T15:46:13;102726.22;;;18.88;52.56
37860;BME280;23698;52.014;5.190;2023-05-02T15:48:59;102723.50;;;18.95;54.54
37860;BME280;23698;52.014;5.190;2023-05-02T15:51:47;102723.66;;;18.86;54.93
37860;BME280;23698;52.014;5.190;2023-05-02T15:54:33;102730.94;;;18.44;56.52
37860;BME280;23698;52.014;5.190;2023-05-02T15:57:20;102734.31;;;20.13;55.07
37860;BME280;23698;52.014;5.190;2023-05-02T16:00:08;102727.47;;;19.27;53.55
37860;BME280;23698;52.014;5.190;2023-05-02T16:03:00;102740.78;;;18.89;53.76
37860;BME280;23698;52.014;5.190;2023-05-02T16:05:51;102739.81;;;19.44;53.02
37860;BME280;23698;52.014;5.190;2023-05-02T16:08:39;102753.09;;;18.43;54.60
37860;BME280;23698;52.014;5.190;2023-05-02T16:11:25;102739.56;;;18.91;55.69
37860;BME280;23698;52.014;5.190;2023-05-02T16:14:12;102754.16;;;17.99;55.68
37860;BME280;23698;52.014;5.190;2023-05-02T17:39:27;102771.72;;;12.89;100.00
37860;BME280;23698;52.014;5.190;2023-05-02T17:42:13;102780.72;;;12.89;100.00
37860;BME280;23698;52.014;5.190;2023-05-02T17:45:00;102787.59;;;12.93;100.00
37860;BME280;23698;52.014;5.190;2023-05-02T17:47:53;102783.94;;;13.11;100.00
37860;BME280;23698;52.014;5.190;2023-05-02T17:50:41;102789.41;;;12.84;100.00
37860;BME280;23698;52.014;5.190;2023-05-02T17:53:27;102778.16;;;12.61;100.00
37860;BME280;23698;52.014;5.190;2023-05-02T17:56:15;102776.25;;;12.80;100.00
37860;BME280;23698;52.014;5.190;2023-05-02T17:59:03;102785.00;;;12.65;100.00
37860;BME280;23698;52.014;5.190;2023-05-02T18:01:50;102781.94;;;12.42;100.00
37860;BME280;23698;52.014;5.190;2023-05-02T18:04:37;102783.09;;;12.22;100.00
37860;BME280;23698;52.014;5.190;2023-05-02T18:07:26;102787.59;;;12.75;100.00
37860;BME280;23698;52.014;5.190;2023-05-02T18:10:14;102792.56;;;12.18;100.00
37860;BME280;23698;52.014;5.190;2023-05-02T18:13:05;102797.38;;;12.42;100.00
37860;BME280;23698;52.014;5.190;2023-05-02T18:21:29;102790.56;;;12.20;100.00
37860;BME280;23698;52.014;5.190;2023-05-02T18:24:17;102801.88;;;11.97;100.00
37860;BME280;23698;52.014;5.190;2023-05-02T18:27:04;102799.69;;;11.73;100.00
37860;BME280;23698;52.014;5.190;2023-05-02T18:29:52;102803.78;;;11.87;100.00
37860;BME280;23698;52.014;5.190;2023-05-02T18:32:38;102796.38;;;11.79;100.00
37860;BME280;23698;52.014;5.190;2023-05-02T18:35:25;102797.66;;;11.57;100.00
37860;BME280;23698;52.014;5.190;2023-05-02T18:38:12;102793.22;;;11.56;100.00
37860;BME280;23698;52.014;5.190;2023-05-02T18:40:59;102803.25;;;11.46;100.00
37860;BME280;23698;52.014;5.190;2023-05-02T18:43:45;102796.16;;;11.35;100.00
37860;BME280;23698;52.014;5.190;2023-05-02T18:46:33;102801.53;;;11.07;100.00
37860;BME280;23698;52.014;5.190;2023-05-02T18:49:20;102807.31;;;10.85;100.00
37860;BME280;23698;52.014;5.190;2023-05-02T18:52:07;102815.28;;;10.96;100.00
37860;BME280;23698;52.014;5.190;2023-05-02T18:54:53;102821.56;;;10.87;100.00
37860;BME280;23698;52.014;5.190;2023-05-02T18:57:42;102815.59;;;10.93;100.00
37860;BME280;23698;52.014;5.190;2023-05-02T19:38:57;102835.34;;;9.45;100.00
37860;BME280;23698;52.014;5.190;2023-05-02T19:41:44;102840.06;;;9.53;100.00
37860;BME280;23698;52.014;5.190;2023-05-02T19:44:32;102832.47;;;9.37;100.00
37860;BME280;23698;52.014;5.190;2023-05-02T19:47:19;102829.63;;;9.39;100.00
37860;BME280;23698;52.014;5.190;2023-05-02T19:50:08;102831.66;;;9.16;100.00
37860;BME280;23698;52.014;5.190;2023-05-02T19:52:54;102833.00;;;9.10;100.00
37860;BME280;23698;52.014;5.190;2023-05-02T19:55:43;102837.13;;;9.04;100.00
37860;BME280;23698;52.014;5.190;2023-05-02T19:58:29;102838.03;;;9.15;100.00
37860;BME280;23698;52.014;5.190;2023-05-02T20:04:12;102854.63;;;9.00;100.00
37860;BME280;23698;52.014;5.190;2023-05-02T20:06:59;102851.13;;;8.88;100.00
37860;BME280;23698;52.014;5.190;2023-05-02T20:09:46;102860.06;;;8.89;100.00
37860;BME280;23698;52.014;5.190;2023-05-02T20:12:33;102857.03;;;8.82;100.00
37860;BME280;23698;52.014;5.190;2023-05-02T20:15:20;102851.78;;;8.81;100.00
37860;BME280;23698;52.014;5.190;2023-05-02T20:18:06;102855.78;;;8.65;100.00
37860;BME280;23698;52.014;5.190;2023-05-02T20:20:54;102860.72;;;8.60;100.00
37860;BME280;23698;52.014;5.190;2023-05-02T20:23:40;102869.75;;;8.49;100.00
37860;BME280;23698;52.014;5.190;2023-05-02T20:26:27;102868.63;;;8.41;100.00
37860;BME280;23698;52.014;5.190;2023-05-02T20:29:16;102865.94;;;8.41;100.00
37860;BME280;23698;52.014;5.190;2023-05-02T20:32:03;102871.28;;;8.63;100.00
37860;BME280;23698;52.014;5.190;2023-05-02T20:34:50;102869.06;;;8.68;100.00
37860;BME280;23698;52.014;5.190;2023-05-02T20:37:36;102876.13;;;8.48;100.00
37860;BME280;23698;52.014;5.190;2023-05-02T20:40:23;102887.28;;;8.55;100.00
37860;BME280;23698;52.014;5.190;2023-05-02T20:43:10;102884.75;;;8.31;100.00
37860;BME280;23698;52.014;5.190;2023-05-02T20:46:07;102889.06;;;8.34;100.00
37860;BME280;23698;52.014;5.190;2023-05-02T20:48:53;102888.13;;;8.56;100.00
37860;BME280;23698;52.014;5.190;2023-05-02T20:51:40;102882.28;;;8.39;100.00
37860;BME280;23698;52.014;5.190;2023-05-02T20:54:27;102892.47;;;8.47;100.00
37860;BME280;23698;52.014;5.190;2023-05-02T20:57:14;102888.56;;;8.28;100.00
37860;BME280;23698;52.014;5.190;2023-05-02T21:00:01;102887.81;;;8.38;100.00
37860;BME280;23698;52.014;5.190;2023-05-02T21:02:50;102882.66;;;8.35;100.00
37860;BME280;23698;52.014;5.190;2023-05-02T21:05:36;102881.56;;;8.26;100.00
37860;BME280;23698;52.014;5.190;2023-05-02T21:08:22;102876.38;;;8.34;100.00
37860;BME280;23698;52.014;5.190;2023-05-02T21:11:12;102875.56;;;8.22;100.00
37860;BME280;23698;52.014;5.190;2023-05-02T21:13:59;102879.72;;;8.26;100.00
37860;BME280;23698;52.014;5.190;2023-05-02T21:16:45;102879.03;;;8.13;100.00
37860;BME280;23698;52.014;5.190;2023-05-02T21:19:33;102870.31;;;8.09;100.00
37860;BME280;23698;52.014;5.190;2023-05-02T21:22:21;102870.19;;;8.11;100.00
37860;BME280;23698;52.014;5.190;2023-05-02T21:25:08;102871.44;;;7.96;100.00
37860;BME280;23698;52.014;5.190;2023-05-02T21:27:54;102872.16;;;7.98;100.00
37860;BME280;23698;52.014;5.190;2023-05-02T21:30:41;102862.59;;;7.93;100.00
37860;BME280;23698;52.014;5.190;2023-05-02T21:33:27;102866.41;;;8.02;100.00
37860;BME280;23698;52.014;5.190;2023-05-02T21:36:15;102871.19;;;7.99;100.00
37860;BME280;23698;52.014;5.190;2023-05-02T21:39:01;102871.69;;;7.92;100.00
37860;BME280;23698;52.014;5.190;2023-05-02T21:41:47;102870.94;;;7.79;100.00
37860;BME280;23698;52.014;5.190;2023-05-02T21:44:34;102866.66;;;7.77;100.00
37860;BME280;23698;52.014;5.190;2023-05-02T21:47:20;102880.16;;;7.65;100.00
37860;BME280;23698;52.014;5.190;2023-05-02T21:50:25;102879.53;;;7.62;100.00
37860;BME280;23698;52.014;5.190;2023-05-02T21:53:33;102870.59;;;7.61;100.00
37860;BME280;23698;52.014;5.190;2023-05-02T21:56:38;102874.50;;;7.68;100.00
37860;BME280;23698;52.014;5.190;2023-05-02T21:59:44;102860.78;;;7.60;100.00
37860;BME280;23698;52.014;5.190;2023-05-02T22:02:49;102863.84;;;7.55;100.00
37860;BME280;23698;52.014;5.190;2023-05-02T22:05:55;102859.69;;;7.63;100.00
37860;BME280;23698;52.014;5.190;2023-05-02T22:09:02;102862.03;;;7.67;100.00
37860;BME280;23698;52.014;5.190;2023-05-02T22:12:11;102853.41;;;7.51;100.00
